createdAt,value
2019-02-22T00:00:10.748Z,0
2019-02-22T00:01:11.721Z,0
2019-02-22T00:02:12.143Z,0
2019-02-22T00:03:12.834Z,0
2019-02-22T00:04:13.556Z,0
2019-02-22T00:05:13.999Z,0
2019-02-22T00:06:14.704Z,0
2019-02-22T00:07:15.746Z,0
2019-02-22T00:08:17.013Z,0
2019-02-22T00:09:17.226Z,0
2019-02-22T00:10:17.923Z,0
2019-02-22T00:11:18.623Z,0
2019-02-22T00:12:20.148Z,0
2019-02-22T00:13:20.132Z,0
2019-02-22T00:14:21.708Z,0
2019-02-22T00:15:21.125Z,0
2019-02-22T00:16:21.581Z,0
2019-02-22T00:17:23.552Z,0
2019-02-22T00:18:24.258Z,0
2019-02-22T00:19:25.245Z,0
2019-02-22T00:20:25.667Z,0
2019-02-22T00:21:26.426Z,0
2019-02-22T00:22:27.120Z,0
2019-02-22T00:23:28.653Z,0
2019-02-22T00:24:28.910Z,0
2019-02-22T00:25:29.325Z,0
2019-02-22T00:26:29.744Z,0
2019-02-22T00:27:31.454Z,0
2019-02-22T00:28:31.595Z,0
2019-02-22T00:29:32.298Z,0
2019-02-22T00:30:33.052Z,0
2019-02-22T00:31:34.100Z,0
2019-02-22T00:32:34.798Z,0
2019-02-22T00:33:36.108Z,0
2019-02-22T00:34:37.319Z,0
2019-02-22T00:35:38.839Z,0
2019-02-22T00:36:40.840Z,0
2019-02-22T00:37:40.574Z,0
2019-02-22T00:38:41.573Z,0
2019-02-22T00:39:42.820Z,0
2019-02-22T00:40:42.588Z,0
2019-02-22T00:41:43.008Z,0
2019-02-22T00:42:43.993Z,0
2019-02-22T00:43:44.765Z,0
2019-02-22T00:44:44.958Z,0
2019-02-22T00:45:45.724Z,0
2019-02-22T00:46:45.700Z,0
2019-02-22T00:47:47.103Z,0
2019-02-22T00:48:48.074Z,0
2019-02-22T00:49:49.325Z,0
2019-02-22T00:50:49.028Z,0
2019-02-22T00:51:49.441Z,0
2019-02-22T00:52:50.133Z,0
2019-02-22T00:53:51.831Z,0
2019-02-22T00:54:52.556Z,0
2019-02-22T00:55:53.267Z,0
2019-02-22T00:56:54.534Z,0
2019-02-22T00:57:53.888Z,0
2019-02-22T00:58:55.858Z,0
2019-02-22T00:59:56.552Z,0
2019-02-22T01:00:57.526Z,0
2019-02-22T01:01:57.222Z,0
2019-02-22T01:02:57.364Z,0
2019-02-22T01:03:59.341Z,0
2019-02-22T01:04:58.760Z,0
2019-02-22T01:06:00.530Z,0
2019-02-22T01:07:01.546Z,0
2019-02-22T01:08:02.094Z,0
2019-02-22T01:09:03.075Z,0
2019-02-22T01:10:04.047Z,0
2019-02-22T01:11:04.864Z,0
2019-02-22T01:12:05.836Z,0
2019-02-22T01:13:06.603Z,0
2019-02-22T01:14:07.086Z,0
2019-02-22T01:15:07.586Z,0
2019-02-22T01:16:08.280Z,0
2019-02-22T01:17:09.273Z,0
2019-02-22T01:18:09.954Z,0
2019-02-22T01:19:11.481Z,0
2019-02-22T01:20:12.306Z,0
2019-02-22T01:21:12.003Z,0
2019-02-22T01:22:13.533Z,0
2019-02-22T01:23:12.738Z,0
2019-02-22T01:24:14.065Z,0
2019-02-22T01:25:14.371Z,0
2019-02-22T01:26:15.063Z,0
2019-02-22T01:27:15.759Z,0
2019-02-22T01:28:17.425Z,0
2019-02-22T01:29:17.688Z,0
2019-02-22T01:30:18.107Z,0
2019-02-22T01:31:20.077Z,0
2019-02-22T01:32:21.372Z,0
2019-02-22T01:33:23.054Z,0
2019-02-22T01:34:23.039Z,0
2019-02-22T01:35:23.487Z,0
2019-02-22T01:36:24.491Z,0
2019-02-22T01:37:24.776Z,0
2019-02-22T01:38:24.645Z,0
2019-02-22T01:39:26.347Z,0
2019-02-22T01:40:27.063Z,0
2019-02-22T01:41:27.783Z,0
2019-02-22T01:42:28.754Z,0
2019-02-22T01:43:28.898Z,0
2019-02-22T01:44:30.893Z,0
2019-02-22T01:45:30.311Z,0
2019-02-22T01:46:32.290Z,0
2019-02-22T01:47:31.985Z,0
2019-02-22T01:48:32.871Z,0
2019-02-22T01:49:33.291Z,0
2019-02-22T01:50:34.985Z,0
2019-02-22T01:51:35.403Z,0
2019-02-22T01:52:35.826Z,0
2019-02-22T01:53:36.523Z,0
2019-02-22T01:54:37.504Z,0
2019-02-22T01:55:39.782Z,0
2019-02-22T01:56:39.765Z,0
2019-02-22T01:57:39.902Z,0
2019-02-22T01:58:54.367Z,0
2019-02-22T01:59:55.349Z,0
2019-02-22T02:00:55.769Z,0
2019-02-22T02:01:57.063Z,0
2019-02-22T02:02:58.340Z,0
2019-02-22T02:03:59.623Z,0
2019-02-22T02:04:59.347Z,0
2019-02-22T02:05:59.785Z,0
2019-02-22T02:06:59.941Z,0
2019-02-22T02:08:00.646Z,0
2019-02-22T02:09:02.177Z,0
2019-02-22T02:10:02.370Z,0
2019-02-22T02:11:03.336Z,0
2019-02-22T02:12:04.226Z,0
2019-02-22T02:13:04.640Z,0
2019-02-22T02:14:05.609Z,0
2019-02-22T02:15:06.025Z,0
2019-02-22T02:16:07.001Z,0
2019-02-22T02:17:07.983Z,0
2019-02-22T02:18:07.967Z,0
2019-02-22T02:19:08.667Z,0
2019-02-22T02:20:11.314Z,0
2019-02-22T02:21:10.273Z,0
2019-02-22T02:22:10.426Z,0
2019-02-22T02:23:12.134Z,0
2019-02-22T02:24:12.276Z,0
2019-02-22T02:25:13.093Z,0
2019-02-22T02:26:13.787Z,0
2019-02-22T02:27:14.488Z,0
2019-02-22T02:28:16.187Z,0
2019-02-22T02:29:17.451Z,0
2019-02-22T02:30:18.517Z,0
2019-02-22T02:31:18.512Z,0
2019-02-22T02:32:19.214Z,0
2019-02-22T02:33:20.779Z,0
2019-02-22T02:34:20.830Z,0
2019-02-22T02:35:34.806Z,0
2019-02-22T02:36:34.833Z,0
2019-02-22T02:37:35.825Z,0
2019-02-22T02:38:35.517Z,0
2019-02-22T02:39:37.084Z,0
2019-02-22T02:40:38.052Z,0
2019-02-22T02:41:38.931Z,0
2019-02-22T02:42:40.055Z,0
2019-02-22T02:43:41.034Z,0
2019-02-22T02:44:41.448Z,0
2019-02-22T02:45:42.594Z,0
2019-02-22T02:46:42.705Z,0
2019-02-22T02:47:43.958Z,0
2019-02-22T02:48:43.381Z,0
2019-02-22T02:49:43.801Z,0
2019-02-22T02:50:45.122Z,0
2019-02-22T02:51:45.981Z,0
2019-02-22T02:52:45.977Z,0
2019-02-22T02:53:47.523Z,0
2019-02-22T02:54:47.283Z,0
2019-02-22T02:55:48.555Z,0
2019-02-22T02:56:48.290Z,0
2019-02-22T02:57:48.719Z,0
2019-02-22T02:58:49.430Z,0
2019-02-22T02:59:50.970Z,0
2019-02-22T03:00:51.676Z,0
2019-02-22T03:01:52.379Z,0
2019-02-22T03:02:54.203Z,0
2019-02-22T03:03:54.407Z,0
2019-02-22T03:04:55.999Z,0
2019-02-22T03:05:56.550Z,0
2019-02-22T03:06:57.087Z,0
2019-02-22T03:07:56.227Z,0
2019-02-22T03:08:58.483Z,0
2019-02-22T03:09:59.599Z,0
2019-02-22T03:10:59.970Z,0
2019-02-22T03:12:02.086Z,0
2019-02-22T03:13:02.351Z,0
2019-02-22T03:14:03.646Z,0
2019-02-22T03:15:03.926Z,0
2019-02-22T03:16:05.483Z,0
2019-02-22T03:17:05.874Z,0
2019-02-22T03:18:06.598Z,0
2019-02-22T03:19:07.850Z,0
2019-02-22T03:20:07.553Z,0
2019-02-22T03:21:09.526Z,0
2019-02-22T03:22:10.217Z,0
2019-02-22T03:23:11.496Z,0
2019-02-22T03:24:12.471Z,0
2019-02-22T03:25:13.441Z,0
2019-02-22T03:26:14.423Z,0
2019-02-22T03:27:14.655Z,0
2019-02-22T03:28:16.302Z,0
2019-02-22T03:29:16.072Z,0
2019-02-22T03:30:18.537Z,0
2019-02-22T03:31:18.024Z,0
2019-02-22T03:32:19.172Z,0
2019-02-22T03:33:20.714Z,0
2019-02-22T03:34:21.054Z,0
2019-02-22T03:35:21.581Z,0
2019-02-22T03:36:22.871Z,0
2019-02-22T03:37:24.385Z,0
2019-02-22T03:38:25.489Z,0
2019-02-22T03:39:26.782Z,0
2019-02-22T03:40:25.757Z,0
2019-02-22T03:41:39.520Z,0
2019-02-22T03:42:40.094Z,0
2019-02-22T03:43:40.792Z,0
2019-02-22T03:44:41.213Z,0
2019-02-22T03:45:41.911Z,0
2019-02-22T03:46:42.453Z,0
2019-02-22T03:47:42.592Z,0
2019-02-22T03:48:44.321Z,0
2019-02-22T03:49:45.037Z,0
2019-02-22T03:50:46.015Z,0
2019-02-22T03:51:46.433Z,0
2019-02-22T03:52:47.333Z,0
2019-02-22T03:53:48.598Z,0
2019-02-22T03:54:48.878Z,0
2019-02-22T03:55:48.855Z,0
2019-02-22T03:56:49.853Z,0
2019-02-22T03:57:50.689Z,0
2019-02-22T03:58:50.390Z,0
2019-02-22T03:59:53.524Z,0
2019-02-22T04:00:54.258Z,0
2019-02-22T04:01:55.240Z,0
2019-02-22T04:02:56.351Z,0
2019-02-22T04:03:57.338Z,0
2019-02-22T04:04:57.641Z,0
2019-02-22T04:05:58.618Z,0
2019-02-22T04:06:59.875Z,0
2019-02-22T04:08:00.148Z,0
2019-02-22T04:09:01.161Z,0
2019-02-22T04:10:01.460Z,0
2019-02-22T04:11:03.013Z,0
2019-02-22T04:12:03.573Z,0
2019-02-22T04:13:03.845Z,0
2019-02-22T04:14:04.961Z,0
2019-02-22T04:15:05.734Z,0
2019-02-22T04:16:06.441Z,0
2019-02-22T04:17:06.877Z,0
2019-02-22T04:18:07.853Z,0
2019-02-22T04:19:08.383Z,0
2019-02-22T04:20:08.078Z,0
2019-02-22T04:21:08.782Z,0
2019-02-22T04:22:10.044Z,0
2019-02-22T04:23:10.418Z,0
2019-02-22T04:24:10.927Z,0
2019-02-22T04:25:11.348Z,0
2019-02-22T04:26:12.613Z,0
2019-02-22T04:27:13.885Z,0
2019-02-22T04:28:13.378Z,0
2019-02-22T04:29:14.945Z,0
2019-02-22T04:30:14.660Z,0
2019-02-22T04:31:15.095Z,0
2019-02-22T04:32:15.241Z,0
2019-02-22T04:33:17.240Z,0
2019-02-22T04:34:16.973Z,0
2019-02-22T04:35:17.390Z,0
2019-02-22T04:36:18.653Z,0
2019-02-22T04:37:19.646Z,0
2019-02-22T04:38:19.939Z,0
2019-02-22T04:39:20.908Z,0
2019-02-22T04:40:21.901Z,0
2019-02-22T04:41:22.610Z,0
2019-02-22T04:42:23.593Z,0
2019-02-22T04:43:24.355Z,0
2019-02-22T04:44:25.360Z,0
2019-02-22T04:45:25.794Z,0
2019-02-22T04:46:27.062Z,0
2019-02-22T04:47:28.330Z,0
2019-02-22T04:48:28.785Z,0
2019-02-22T04:49:30.090Z,0
2019-02-22T04:50:29.793Z,0
2019-02-22T04:51:30.056Z,0
2019-02-22T04:52:31.106Z,0
2019-02-22T04:53:31.565Z,0
2019-02-22T04:54:32.027Z,0
2019-02-22T04:55:32.465Z,0
2019-02-22T04:56:34.061Z,0
2019-02-22T04:57:34.972Z,0
2019-02-22T04:58:35.238Z,0
2019-02-22T04:59:35.943Z,0
2019-02-22T05:00:37.327Z,0
2019-02-22T05:01:37.624Z,0
2019-02-22T05:02:38.604Z,0
2019-02-22T05:03:39.313Z,0
2019-02-22T05:04:39.600Z,0
2019-02-22T05:05:40.611Z,0
2019-02-22T05:06:40.612Z,0
2019-02-22T05:07:41.598Z,0
2019-02-22T05:08:41.833Z,0
2019-02-22T05:09:42.382Z,0
2019-02-22T05:10:43.459Z,0
2019-02-22T05:11:44.444Z,0
2019-02-22T05:12:44.414Z,0
2019-02-22T05:13:44.854Z,0
2019-02-22T05:14:45.290Z,0
2019-02-22T05:15:47.554Z,0
2019-02-22T05:16:46.694Z,0
2019-02-22T05:17:48.695Z,0
2019-02-22T05:18:48.945Z,0
2019-02-22T05:19:49.501Z,0
2019-02-22T05:20:49.479Z,0
2019-02-22T05:21:50.181Z,0
2019-02-22T05:22:50.440Z,0
2019-02-22T05:23:50.847Z,0
2019-02-22T05:24:52.264Z,0
2019-02-22T05:25:53.056Z,0
2019-02-22T05:26:53.475Z,0
2019-02-22T05:27:54.759Z,0
2019-02-22T05:28:56.057Z,0
2019-02-22T05:29:56.042Z,0
2019-02-22T05:30:57.039Z,0
2019-02-22T05:31:58.592Z,0
2019-02-22T05:32:57.795Z,0
2019-02-22T05:33:59.221Z,0
2019-02-22T05:35:00.857Z,0
2019-02-22T05:36:01.385Z,0
2019-02-22T05:37:02.430Z,0
2019-02-22T05:38:02.725Z,0
2019-02-22T05:39:04.286Z,0
2019-02-22T05:40:04.828Z,0
2019-02-22T05:41:05.267Z,0
2019-02-22T05:42:06.590Z,0
2019-02-22T05:43:06.591Z,0
2019-02-22T05:44:06.982Z,0
2019-02-22T05:45:07.956Z,0
2019-02-22T05:46:08.223Z,0
2019-02-22T05:47:09.478Z,0
2019-02-22T05:48:10.227Z,0
2019-02-22T05:49:11.212Z,0
2019-02-22T05:50:11.652Z,0
2019-02-22T05:51:12.973Z,0
2019-02-22T05:52:13.521Z,0
2019-02-22T05:53:13.227Z,0
2019-02-22T05:54:13.093Z,0
2019-02-22T05:55:14.090Z,0
2019-02-22T05:56:15.062Z,0
2019-02-22T05:57:17.064Z,0
2019-02-22T05:58:17.400Z,0
2019-02-22T05:59:17.665Z,0
2019-02-22T06:00:19.210Z,0
2019-02-22T06:01:20.739Z,0
2019-02-22T06:02:20.306Z,0
2019-02-22T06:03:20.872Z,0
2019-02-22T06:04:20.842Z,0
2019-02-22T06:05:21.847Z,0
2019-02-22T06:06:22.876Z,0
2019-02-22T06:07:23.294Z,0
2019-02-22T06:08:25.106Z,0
2019-02-22T06:09:25.142Z,0
2019-02-22T06:10:26.395Z,0
2019-02-22T06:11:27.922Z,0
2019-02-22T06:12:40.952Z,0
2019-02-22T06:13:42.507Z,0
2019-02-22T06:14:41.959Z,0
2019-02-22T06:15:43.512Z,0
2019-02-22T06:16:43.766Z,0
2019-02-22T06:17:44.188Z,0
2019-02-22T06:18:44.613Z,0
2019-02-22T06:19:45.306Z,0
2019-02-22T06:20:46.006Z,0
2019-02-22T06:21:47.021Z,0
2019-02-22T06:22:48.091Z,0
2019-02-22T06:23:47.684Z,0
2019-02-22T06:24:48.907Z,0
2019-02-22T06:25:50.887Z,0
2019-02-22T06:26:50.325Z,0
2019-02-22T06:27:51.875Z,0
2019-02-22T06:28:51.855Z,0
2019-02-22T06:29:53.122Z,0
2019-02-22T06:30:52.861Z,0
2019-02-22T06:31:53.865Z,0
2019-02-22T06:32:55.402Z,0
2019-02-22T06:33:54.986Z,0
2019-02-22T06:34:56.131Z,0
2019-02-22T06:35:58.200Z,0
2019-02-22T06:37:10.851Z,5.63
2019-02-22T06:38:11.181Z,5.63
2019-02-22T06:39:11.915Z,5.63
2019-02-22T06:40:12.352Z,5.63
2019-02-22T06:41:12.824Z,5.63
2019-02-22T06:42:13.906Z,5.63
2019-02-22T06:43:14.609Z,5.63
2019-02-22T06:44:14.608Z,5.63
2019-02-22T06:45:15.867Z,5.63
2019-02-22T06:46:16.289Z,5.63
2019-02-22T06:47:17.822Z,5.63
2019-02-22T06:48:18.737Z,5.63
2019-02-22T06:49:19.088Z,5.63
2019-02-22T06:50:20.250Z,5.63
2019-02-22T06:51:20.392Z,5.63
2019-02-22T06:52:21.430Z,5.63
2019-02-22T06:53:22.739Z,5.63
2019-02-22T06:54:23.028Z,5.63
2019-02-22T06:55:25.400Z,5.63
2019-02-22T06:56:26.697Z,5.63
2019-02-22T06:57:28.339Z,11.25
2019-02-22T06:58:27.763Z,11.25
2019-02-22T06:59:28.489Z,11.25
2019-02-22T07:00:29.201Z,11.25
2019-02-22T07:01:30.552Z,11.25
2019-02-22T07:02:31.989Z,11.25
2019-02-22T07:03:32.244Z,11.25
2019-02-22T07:04:32.996Z,5.63
2019-02-22T07:05:34.282Z,5.63
2019-02-22T07:06:34.963Z,5.63
2019-02-22T07:07:36.059Z,5.63
2019-02-22T07:08:37.064Z,11.25
2019-02-22T07:09:37.124Z,11.25
2019-02-22T07:10:37.714Z,11.25
2019-02-22T07:11:41.033Z,11.25
2019-02-22T07:12:40.855Z,11.25
2019-02-22T07:13:41.274Z,11.25
2019-02-22T07:14:41.981Z,11.25
2019-02-22T07:15:42.681Z,11.25
2019-02-22T07:16:43.658Z,11.25
2019-02-22T07:17:44.935Z,16.88
2019-02-22T07:18:45.858Z,16.88
2019-02-22T07:19:46.623Z,22.5
2019-02-22T07:20:47.136Z,28.13
2019-02-22T07:21:59.959Z,22.5
2019-02-22T07:23:00.458Z,28.13
2019-02-22T07:24:03.865Z,28.13
2019-02-22T07:25:02.209Z,28.13
2019-02-22T07:26:01.999Z,22.5
2019-02-22T07:27:02.873Z,16.88
2019-02-22T07:28:02.876Z,16.88
2019-02-22T07:29:03.882Z,11.25
2019-02-22T07:30:04.315Z,11.25
2019-02-22T07:31:06.471Z,11.25
2019-02-22T07:32:08.762Z,11.25
2019-02-22T07:33:09.522Z,11.25
2019-02-22T07:34:09.668Z,11.25
2019-02-22T07:35:15.843Z,11.25
2019-02-22T07:35:22.773Z,11.25
2019-02-22T07:36:23.908Z,11.25
2019-02-22T07:37:25.732Z,11.25
2019-02-22T07:38:27.552Z,11.25
2019-02-22T07:39:30.928Z,16.88
2019-02-22T07:40:32.215Z,16.88
2019-02-22T07:41:33.800Z,16.88
2019-02-22T07:42:33.516Z,16.88
2019-02-22T07:43:33.687Z,16.88
2019-02-22T07:44:35.517Z,16.88
2019-02-22T07:45:42.532Z,16.88
2019-02-22T07:45:48.303Z,22.5
2019-02-22T07:46:48.716Z,22.5
2019-02-22T07:47:49.502Z,22.5
2019-02-22T07:48:50.482Z,22.5
2019-02-22T07:49:51.182Z,22.5
2019-02-22T07:51:04.924Z,22.5
2019-02-22T07:52:06.446Z,16.88
2019-02-22T07:53:06.155Z,16.88
2019-02-22T07:54:07.487Z,22.5
2019-02-22T07:55:07.971Z,22.5
2019-02-22T07:56:08.956Z,28.13
2019-02-22T07:57:09.655Z,28.13
2019-02-22T07:58:11.179Z,28.13
2019-02-22T07:59:11.600Z,28.13
2019-02-22T08:00:13.418Z,33.75
2019-02-22T08:01:13.674Z,33.75
2019-02-22T08:02:14.226Z,33.75
2019-02-22T08:03:14.924Z,33.75
2019-02-22T08:04:15.898Z,39.38
2019-02-22T08:05:16.105Z,39.38
2019-02-22T08:06:17.531Z,39.38
2019-02-22T08:07:18.316Z,39.38
2019-02-22T08:08:19.586Z,39.38
2019-02-22T08:09:20.888Z,39.38
2019-02-22T08:10:20.591Z,39.38
2019-02-22T08:11:21.347Z,39.38
2019-02-22T08:12:24.508Z,45
2019-02-22T08:13:24.129Z,45
2019-02-22T08:14:22.399Z,45
2019-02-22T08:15:23.542Z,39.38
2019-02-22T08:16:24.794Z,45
2019-02-22T08:17:25.979Z,39.38
2019-02-22T08:18:25.848Z,39.38
2019-02-22T08:19:26.276Z,39.38
2019-02-22T08:20:27.698Z,39.38
2019-02-22T08:21:28.154Z,45
2019-02-22T08:22:29.820Z,61.88
2019-02-22T08:23:34.213Z,73.13
2019-02-22T08:24:30.802Z,67.5
2019-02-22T08:25:34.118Z,73.13
2019-02-22T08:26:35.696Z,73.13
2019-02-22T08:28:04.140Z,61.88
2019-02-22T08:28:11.878Z,61.88
2019-02-22T08:29:11.606Z,56.25
2019-02-22T08:30:12.972Z,50.63
2019-02-22T08:31:12.949Z,50.63
2019-02-22T08:32:13.967Z,45
2019-02-22T08:33:14.946Z,45
2019-02-22T08:34:15.683Z,45
2019-02-22T08:35:16.751Z,39.38
2019-02-22T08:36:17.452Z,45
2019-02-22T08:37:19.008Z,39.38
2019-02-22T08:38:19.272Z,39.38
2019-02-22T08:39:19.147Z,45
2019-02-22T08:40:19.859Z,39.38
2019-02-22T08:41:20.989Z,39.38
2019-02-22T08:42:21.424Z,39.38
2019-02-22T08:43:35.354Z,39.38
2019-02-22T08:44:34.667Z,39.38
2019-02-22T08:45:35.985Z,39.38
2019-02-22T08:46:36.484Z,45
2019-02-22T08:47:36.906Z,45
2019-02-22T08:48:37.614Z,50.63
2019-02-22T08:49:37.763Z,45
2019-02-22T08:50:39.202Z,45
2019-02-22T08:51:40.302Z,45
2019-02-22T08:52:41.078Z,45
2019-02-22T08:53:45.311Z,50.63
2019-02-22T08:54:54.472Z,61.88
2019-02-22T08:55:55.699Z,67.5
2019-02-22T08:56:56.700Z,67.5
2019-02-22T08:57:57.195Z,67.5
2019-02-22T08:58:58.176Z,61.88
2019-02-22T08:59:58.604Z,56.25
2019-02-22T09:00:59.033Z,56.25
2019-02-22T09:01:59.789Z,56.25
2019-02-22T09:03:00.206Z,61.88
2019-02-22T09:04:01.239Z,67.5
2019-02-22T09:05:01.948Z,73.13
2019-02-22T09:06:02.477Z,78.75
2019-02-22T09:07:03.553Z,78.75
2019-02-22T09:08:04.257Z,78.75
2019-02-22T09:09:04.691Z,78.75
2019-02-22T09:10:06.500Z,73.13
2019-02-22T09:11:06.729Z,67.5
2019-02-22T09:12:07.992Z,78.75
2019-02-22T09:13:08.263Z,90
2019-02-22T09:14:08.699Z,84.38
2019-02-22T09:15:10.862Z,78.75
2019-02-22T09:16:11.957Z,78.75
2019-02-22T09:17:11.741Z,78.75
2019-02-22T09:18:12.738Z,67.5
2019-02-22T09:19:13.731Z,78.75
2019-02-22T09:20:14.491Z,84.38
2019-02-22T09:21:15.196Z,95.63
2019-02-22T09:22:27.390Z,101.25
2019-02-22T09:23:30.385Z,101.25
2019-02-22T09:24:30.185Z,95.63
2019-02-22T09:25:30.373Z,90
2019-02-22T09:26:31.360Z,90
2019-02-22T09:27:32.117Z,84.38
2019-02-22T09:28:33.126Z,78.75
2019-02-22T09:29:33.562Z,78.75
2019-02-22T09:30:34.563Z,78.75
2019-02-22T09:31:35.284Z,73.13
2019-02-22T09:32:35.990Z,73.13
2019-02-22T09:33:36.273Z,78.75
2019-02-22T09:34:37.524Z,73.13
2019-02-22T09:35:41.067Z,73.13
2019-02-22T09:36:39.258Z,78.75
2019-02-22T09:37:39.957Z,78.75
2019-02-22T09:38:41.222Z,78.75
2019-02-22T09:39:41.648Z,78.75
2019-02-22T09:40:43.075Z,84.38
2019-02-22T09:41:44.141Z,84.38
2019-02-22T09:42:46.040Z,90
2019-02-22T09:43:58.762Z,101.25
2019-02-22T09:44:57.462Z,95.63
2019-02-22T09:45:58.445Z,90
2019-02-22T09:46:59.158Z,84.38
2019-02-22T09:48:01.668Z,78.75
2019-02-22T09:49:01.527Z,78.75
2019-02-22T09:50:04.492Z,78.75
2019-02-22T09:51:01.489Z,78.75
2019-02-22T09:52:01.641Z,78.75
2019-02-22T09:53:02.807Z,78.75
2019-02-22T09:54:04.809Z,78.75
2019-02-22T09:55:04.919Z,78.75
2019-02-22T09:56:06.471Z,78.75
2019-02-22T09:57:07.771Z,78.75
2019-02-22T09:58:07.202Z,73.13
2019-02-22T09:59:08.626Z,78.75
2019-02-22T10:00:08.770Z,78.75
2019-02-22T10:01:09.499Z,78.75
2019-02-22T10:02:10.763Z,78.75
2019-02-22T10:03:12.032Z,73.13
2019-02-22T10:04:13.030Z,73.13
2019-02-22T10:04:58.773Z,67.5
2019-02-22T10:05:59.459Z,73.13
2019-02-22T10:07:00.436Z,73.13
2019-02-22T10:08:01.729Z,78.75
2019-02-22T10:09:06.245Z,78.75
2019-02-22T10:10:03.306Z,84.38
2019-02-22T10:11:03.009Z,90
2019-02-22T10:12:03.709Z,78.75
2019-02-22T10:13:04.417Z,78.75
2019-02-22T10:14:09.611Z,73.13
2019-02-22T10:14:18.774Z,73.13
2019-02-22T10:15:17.737Z,78.75
2019-02-22T10:16:18.448Z,78.75
2019-02-22T10:17:19.437Z,78.75
2019-02-22T10:18:22.069Z,84.38
2019-02-22T10:19:22.194Z,90
2019-02-22T10:20:21.675Z,84.38
2019-02-22T10:21:22.784Z,78.75
2019-02-22T10:22:23.911Z,73.13
2019-02-22T10:23:24.915Z,73.13
2019-02-22T10:24:25.410Z,73.13
2019-02-22T10:25:26.251Z,73.13
2019-02-22T10:26:26.669Z,78.75
2019-02-22T10:27:26.816Z,90
2019-02-22T10:28:28.374Z,106.88
2019-02-22T10:29:28.801Z,123.75
2019-02-22T10:30:30.059Z,135
2019-02-22T10:31:30.764Z,157.5
2019-02-22T10:32:31.817Z,180
2019-02-22T10:33:44.917Z,163.13
2019-02-22T10:34:44.753Z,140.63
2019-02-22T10:35:48.501Z,118.13
2019-02-22T10:36:48.347Z,112.5
2019-02-22T10:37:48.812Z,112.5
2019-02-22T10:38:50.150Z,101.25
2019-02-22T10:39:50.633Z,101.25
2019-02-22T10:40:51.290Z,95.63
2019-02-22T10:41:51.204Z,106.88
2019-02-22T10:42:52.090Z,112.5
2019-02-22T10:43:53.359Z,112.5
2019-02-22T10:44:53.917Z,90
2019-02-22T10:45:54.665Z,84.38
2019-02-22T10:46:55.655Z,73.13
2019-02-22T10:47:56.461Z,61.88
2019-02-22T10:48:56.963Z,61.88
2019-02-22T10:49:57.689Z,78.75
2019-02-22T10:51:01.943Z,78.75
2019-02-22T10:52:07.129Z,73.13
2019-02-22T10:53:08.443Z,67.5
2019-02-22T10:54:06.902Z,56.25
2019-02-22T10:55:07.990Z,61.88
2019-02-22T10:56:08.719Z,67.5
2019-02-22T10:57:09.739Z,67.5
2019-02-22T10:58:10.706Z,73.13
2019-02-22T10:59:11.449Z,78.75
2019-02-22T11:00:12.625Z,84.38
2019-02-22T11:01:12.876Z,90
2019-02-22T11:02:13.440Z,90
2019-02-22T11:03:15.459Z,95.63
2019-02-22T11:04:16.717Z,101.25
2019-02-22T11:05:17.222Z,101.25
2019-02-22T11:06:18.508Z,106.88
2019-02-22T11:07:18.486Z,112.5
2019-02-22T11:08:18.576Z,112.5
2019-02-22T11:09:19.303Z,118.13
2019-02-22T11:10:21.538Z,118.13
2019-02-22T11:11:20.752Z,118.13
2019-02-22T11:12:22.914Z,118.13
2019-02-22T11:13:26.149Z,118.13
2019-02-22T11:14:38.291Z,118.13
2019-02-22T11:15:38.768Z,118.13
2019-02-22T11:16:39.750Z,118.13
2019-02-22T11:17:40.225Z,112.5
2019-02-22T11:18:41.350Z,106.88
2019-02-22T11:19:42.783Z,95.63
2019-02-22T11:20:47.489Z,95.63
2019-02-22T11:20:55.271Z,95.63
2019-02-22T11:21:55.884Z,95.63
2019-02-22T11:23:00.940Z,101.25
2019-02-22T11:23:08.914Z,101.25
2019-02-22T11:24:09.362Z,101.25
2019-02-22T11:25:09.798Z,106.88
2019-02-22T11:26:10.794Z,112.5
2019-02-22T11:27:12.146Z,112.5
2019-02-22T11:28:11.922Z,112.5
2019-02-22T11:29:12.365Z,112.5
2019-02-22T11:30:13.077Z,112.5
2019-02-22T11:31:18.656Z,112.5
2019-02-22T11:32:14.089Z,106.88
2019-02-22T11:33:14.513Z,95.63
2019-02-22T11:34:14.946Z,84.38
2019-02-22T11:35:16.294Z,78.75
2019-02-22T11:36:16.341Z,84.38
2019-02-22T11:37:17.849Z,90
2019-02-22T11:38:18.171Z,101.25
2019-02-22T11:39:19.640Z,112.5
2019-02-22T11:40:19.515Z,118.13
2019-02-22T11:41:19.762Z,123.75
2019-02-22T11:42:23.189Z,123.75
2019-02-22T11:43:20.678Z,123.75
2019-02-22T11:44:21.824Z,123.75
2019-02-22T11:45:23.107Z,123.75
2019-02-22T11:46:23.917Z,123.75
2019-02-22T11:47:23.659Z,123.75
2019-02-22T11:48:26.085Z,123.75
2019-02-22T11:49:25.994Z,129.38
2019-02-22T11:50:26.138Z,129.38
2019-02-22T11:51:28.306Z,135
2019-02-22T11:52:29.291Z,135
2019-02-22T11:53:28.718Z,129.38
2019-02-22T11:54:29.845Z,118.13
2019-02-22T11:55:30.275Z,106.88
2019-02-22T11:56:35.097Z,106.88
2019-02-22T11:57:50.670Z,101.25
2019-02-22T11:58:04.030Z,101.25
2019-02-22T11:58:11.023Z,101.25
2019-02-22T11:59:10.371Z,101.25
2019-02-22T12:00:11.367Z,95.63
2019-02-22T12:01:23.804Z,95.63
2019-02-22T12:02:23.923Z,95.63
2019-02-22T12:03:27.474Z,101.25
2019-02-22T12:04:27.536Z,106.88
2019-02-22T12:05:28.032Z,106.88
2019-02-22T12:06:29.021Z,106.88
2019-02-22T12:07:29.465Z,106.88
2019-02-22T12:08:29.974Z,106.88
2019-02-22T12:09:30.479Z,101.25
2019-02-22T12:10:34.571Z,106.88
2019-02-22T12:11:32.263Z,112.5
2019-02-22T12:12:33.555Z,118.13
2019-02-22T12:13:35.098Z,129.38
2019-02-22T12:14:36.077Z,135
2019-02-22T12:15:36.555Z,140.63
2019-02-22T12:16:37.263Z,140.63
2019-02-22T12:17:39.351Z,140.63
2019-02-22T12:18:39.347Z,140.63
2019-02-22T12:19:39.773Z,135
2019-02-22T12:20:44.710Z,129.38
2019-02-22T12:21:44.146Z,129.38
2019-02-22T12:22:45.017Z,129.38
2019-02-22T12:23:46.294Z,129.38
2019-02-22T12:24:47.314Z,140.63
2019-02-22T12:25:47.683Z,151.88
2019-02-22T12:27:00.403Z,157.5
2019-02-22T12:28:01.451Z,157.5
2019-02-22T12:29:01.880Z,168.75
2019-02-22T12:30:03.701Z,174.38
2019-02-22T12:31:03.695Z,191.25
2019-02-22T12:32:04.394Z,208.13
2019-02-22T12:33:04.844Z,225
2019-02-22T12:34:06.574Z,247.5
2019-02-22T12:35:07.398Z,264.38
2019-02-22T12:36:10.060Z,275.63
2019-02-22T12:37:08.650Z,270
2019-02-22T12:38:08.161Z,258.75
2019-02-22T12:39:09.449Z,264.38
2019-02-22T12:40:15.539Z,275.63
2019-02-22T12:40:23.778Z,275.63
2019-02-22T12:41:23.630Z,286.88
2019-02-22T12:42:25.236Z,286.88
2019-02-22T12:43:24.706Z,292.5
2019-02-22T12:44:25.440Z,303.75
2019-02-22T12:45:25.624Z,303.75
2019-02-22T12:46:26.335Z,303.75
2019-02-22T12:47:32.927Z,292.5
2019-02-22T12:47:42.896Z,292.5
2019-02-22T12:48:40.027Z,286.88
2019-02-22T12:49:42.978Z,286.88
2019-02-22T12:50:42.680Z,281.25
2019-02-22T12:51:44.892Z,264.38
2019-02-22T12:52:50.360Z,258.75
2019-02-22T12:53:01.272Z,258.75
2019-02-22T12:53:58.292Z,247.5
2019-02-22T12:54:59.474Z,247.5
2019-02-22T12:55:59.420Z,241.88
2019-02-22T12:57:01.120Z,230.63
2019-02-22T12:58:01.270Z,219.38
2019-02-22T12:59:02.572Z,225
2019-02-22T13:00:03.569Z,230.63
2019-02-22T13:01:02.996Z,230.63
2019-02-22T13:02:04.746Z,219.38
2019-02-22T13:03:05.766Z,213.75
2019-02-22T13:04:05.620Z,219.38
2019-02-22T13:05:06.913Z,236.25
2019-02-22T13:06:06.619Z,241.88
2019-02-22T13:07:08.047Z,258.75
2019-02-22T13:08:09.101Z,270
2019-02-22T13:09:09.881Z,286.88
2019-02-22T13:10:11.152Z,298.13
2019-02-22T13:11:12.421Z,315
2019-02-22T13:12:24.183Z,331.88
2019-02-22T13:13:25.088Z,354.38
2019-02-22T13:14:25.880Z,360
2019-02-22T13:15:26.579Z,360
2019-02-22T13:16:27.284Z,360
2019-02-22T13:17:32.920Z,354.38
2019-02-22T13:18:33.635Z,354.38
2019-02-22T13:19:33.794Z,360
2019-02-22T13:20:35.884Z,371.25
2019-02-22T13:21:36.004Z,388.13
2019-02-22T13:22:37.663Z,382.5
2019-02-22T13:23:38.636Z,371.25
2019-02-22T13:24:39.633Z,337.5
2019-02-22T13:25:41.109Z,309.38
2019-02-22T13:26:41.116Z,286.88
2019-02-22T13:27:41.103Z,270
2019-02-22T13:28:42.083Z,703.13
2019-02-22T13:29:42.622Z,230.63
2019-02-22T13:30:43.389Z,213.75
2019-02-22T13:31:44.434Z,219.38
2019-02-22T13:32:45.294Z,258.75
2019-02-22T13:33:46.133Z,241.88
2019-02-22T13:34:46.663Z,236.25
2019-02-22T13:35:51.404Z,241.88
2019-02-22T13:36:49.053Z,241.88
2019-02-22T13:37:49.200Z,247.5
2019-02-22T13:38:56.701Z,241.88
2019-02-22T13:39:09.275Z,241.88
2019-02-22T13:39:19.425Z,241.88
2019-02-22T13:39:28.508Z,241.88
2019-02-22T13:40:26.550Z,236.25
2019-02-22T13:41:27.535Z,230.63
2019-02-22T13:42:27.685Z,219.38
2019-02-22T13:43:28.962Z,208.13
2019-02-22T13:44:30.122Z,202.5
2019-02-22T13:45:30.112Z,191.25
2019-02-22T13:46:51.447Z,180
2019-02-22T13:47:14.926Z,180